Disclaimer

Please do not use the information listed here in-flight or in-navigation, as they are not provided to us by the airports but are provided by volunteers, so they might be outdated.

Search


Regions


Airport information page

Radio informations:
Tower (TWR) - 122.3 MHz
Automatic Terminal Information Service (ATIS) - 127.0 MHz
Approach (APP) - 122.3 MHz

Airport informations:
Latitude: 19° 51' 45.82" N
Longitude: 075° 23' 53.21" E
Elevation: 1911 feet - 582 meters
Operating hours: N/A
Operating agency: Civil government, landing fees and diplomatic clearance may be required
Timezone: UTC+5:30
Fuel: Jet A1, without icing nhibitor.

Runway information:
09/27 - 7713 x 148 feet< - >2351 x 45 meters

Recent METARs:
VAAU 210000Z 00000KT 6000 NSC 20/17 Q1016 NOSIG
VAAU 210000Z 00000KT 6000 NSC 20/17 Q1016 NOSIG
VAAU 210000Z 00000KT 6000 NSC 20/17 Q1016 NOSIG

Airport on the map: